createdAt,value
2022-10-23T07:13:09.632Z,17.15
2022-10-23T07:15:36.771Z,16.07
2022-10-23T07:18:03.770Z,14.90
2022-10-23T07:20:30.710Z,18.27
2022-10-23T07:22:57.575Z,16.73
2022-10-23T07:25:26.000Z,14.67
2022-10-23T07:27:54.715Z,12.80
2022-10-23T07:30:22.242Z,11.77
2022-10-23T07:32:49.114Z,9.30
2022-10-23T07:35:17.202Z,9.87
2022-10-23T07:37:44.377Z,8.90
2022-10-23T07:40:11.927Z,9.10
2022-10-23T07:42:38.807Z,9.07
2022-10-23T07:45:06.771Z,8.43
2022-10-23T07:47:33.975Z,8.90
2022-10-23T07:50:00.904Z,8.50
2022-10-23T07:52:31.958Z,7.30
2022-10-23T07:55:02.224Z,8.03
2022-10-23T07:57:29.101Z,7.23
2022-10-23T07:59:55.993Z,7.20
2022-10-23T08:02:22.967Z,7.40
2022-10-23T08:04:50.637Z,7.10
2022-10-23T08:07:17.803Z,7.37
2022-10-23T08:09:44.673Z,6.53
2022-10-23T08:12:11.509Z,6.13
2022-10-23T08:14:38.643Z,6.10
2022-10-23T08:17:08.892Z,5.40
2022-10-23T08:19:36.003Z,5.03
2022-10-23T08:22:03.307Z,5.30
2022-10-23T08:24:30.229Z,5.20
2022-10-23T08:26:57.946Z,5.20
2022-10-23T10:22:39.190Z,3.00
2022-10-23T10:25:13.329Z,3.13
2022-10-23T10:27:49.315Z,2.43
2022-10-23T10:30:19.885Z,2.80
2022-10-23T10:32:54.003Z,2.27
2022-10-23T10:35:28.290Z,2.40
2022-10-23T10:38:13.008Z,2.10
2022-10-23T10:40:42.647Z,2.20
2022-10-23T10:43:46.903Z,1.90
2022-10-23T10:46:22.569Z,2.77
2022-10-23T10:48:55.127Z,2.20
2022-10-23T10:51:29.015Z,2.27
2022-10-23T10:54:21.577Z,2.07
2022-10-23T10:56:48.883Z,2.33
2022-10-23T10:59:23.067Z,1.80
2022-10-23T11:01:56.492Z,2.30
2022-10-23T11:04:33.778Z,2.50
2022-10-23T11:14:27.315Z,2.67
2022-10-23T11:17:03.370Z,2.57
2022-10-23T11:19:38.109Z,2.33
2022-10-23T11:22:10.949Z,2.70
2022-10-23T11:25:01.720Z,2.20
2022-10-23T11:27:42.524Z,2.30
2022-10-23T11:30:22.490Z,2.27
2022-10-23T11:33:25.668Z,1.97
2022-10-23T11:36:02.677Z,1.70
2022-10-23T11:38:31.746Z,2.10
2022-10-23T11:41:01.422Z,1.83
2022-10-23T11:43:29.885Z,1.80
2022-10-23T11:45:58.111Z,1.70
2022-10-23T11:48:37.532Z,1.60
2022-10-23T11:51:05.308Z,1.60
2022-10-23T11:53:39.778Z,2.10
2022-10-23T11:56:25.066Z,1.70
2022-10-23T11:58:53.532Z,1.90
2022-10-23T12:01:27.936Z,1.80
2022-10-23T12:03:57.910Z,1.70
2022-10-23T12:06:27.600Z,1.70
2022-10-23T12:08:59.250Z,2.07
2022-10-23T12:11:29.419Z,1.70
2022-10-23T12:13:56.342Z,1.80
2022-10-23T12:16:34.382Z,1.63
2022-10-23T12:19:18.825Z,1.57
2022-10-23T12:21:46.517Z,1.80
2022-10-23T12:24:26.342Z,1.60
2022-10-23T12:27:12.874Z,1.87
2022-10-23T12:32:36.759Z,1.75
2022-10-23T12:35:21.008Z,1.73
2022-10-23T12:38:07.098Z,1.50
2022-10-23T12:40:34.092Z,1.43
2022-10-23T12:43:01.245Z,1.70
2022-10-23T12:45:30.224Z,1.50
2022-10-23T12:47:57.526Z,1.50
2022-10-23T12:50:26.550Z,1.77
2022-10-23T12:52:57.816Z,1.60
2022-10-23T12:55:25.522Z,1.43
2022-10-23T12:57:56.363Z,1.57
2022-10-23T13:00:24.997Z,1.77
2022-10-23T13:03:00.087Z,1.53
2022-10-23T13:05:27.576Z,1.73
2022-10-23T13:07:54.971Z,1.57
2022-10-23T13:10:23.922Z,1.90
2022-10-23T13:12:55.167Z,1.90
2022-10-23T13:15:22.823Z,1.63
2022-10-23T13:18:02.016Z,1.73
2022-10-23T13:20:30.909Z,1.80
2022-10-23T13:23:01.276Z,1.50
2022-10-23T13:25:30.666Z,1.60
2022-10-23T13:28:13.992Z,2.60
2022-10-23T13:30:42.922Z,1.93
2022-10-23T13:33:22.878Z,1.90
2022-10-23T13:35:57.075Z,1.80
2022-10-23T13:38:30.048Z,2.13
2022-10-23T13:40:59.348Z,1.67
2022-10-23T13:43:27.040Z,2.07
2022-10-23T13:45:54.316Z,1.60
2022-10-23T13:48:22.376Z,1.70
2022-10-23T13:50:49.253Z,1.50
2022-10-23T13:53:16.486Z,1.43
2022-10-23T13:55:44.191Z,1.40
2022-10-23T13:58:11.293Z,1.67
2022-10-23T14:00:39.319Z,1.70
2022-10-23T14:03:06.250Z,2.03
2022-10-23T14:05:33.458Z,2.10
2022-10-23T14:08:00.442Z,1.70
2022-10-23T14:10:28.579Z,2.00
2022-10-23T14:12:55.191Z,1.90
2022-10-23T14:15:22.254Z,1.58
2022-10-23T14:17:49.170Z,1.67
2022-10-23T14:20:19.038Z,1.50
2022-10-23T14:22:47.156Z,1.57
2022-10-23T14:25:14.435Z,1.70
2022-10-23T14:27:41.390Z,1.87
2022-10-23T14:30:10.411Z,1.90
2022-10-23T14:32:37.461Z,1.60
2022-10-23T14:35:04.762Z,1.93
2022-10-23T14:37:31.645Z,2.63
2022-10-23T14:39:59.299Z,2.60
2022-10-23T14:42:30.494Z,2.10
2022-10-23T14:45:00.951Z,2.07
2022-10-23T14:47:27.887Z,1.67
2022-10-23T14:49:55.473Z,2.60
2022-10-23T14:52:22.568Z,1.83
2022-10-23T14:54:50.953Z,1.90
2022-10-23T14:57:20.475Z,1.50
2022-10-23T14:59:47.769Z,2.00
2022-10-23T15:02:14.977Z,2.60
2022-10-23T15:04:42.009Z,4.43
2022-10-23T15:07:08.922Z,2.57
2022-10-23T15:09:36.676Z,3.07
2022-10-23T15:12:03.775Z,1.90
2022-10-23T15:14:31.284Z,2.93
2022-10-23T15:16:58.440Z,3.30
2022-10-23T15:19:25.654Z,2.00
2022-10-23T15:21:52.637Z,2.50
2022-10-23T15:24:20.381Z,2.30
2022-10-23T15:26:47.717Z,2.43
2022-10-23T15:29:15.045Z,2.67
2022-10-23T15:31:56.606Z,2.40
2022-10-23T15:34:28.499Z,3.00
2022-10-23T15:36:58.554Z,2.10
2022-10-23T15:39:27.890Z,2.30
2022-10-23T15:41:56.299Z,2.70
2022-10-23T15:44:25.014Z,2.60
2022-10-23T15:46:52.995Z,2.60
2022-10-23T15:49:20.688Z,2.47
2022-10-23T15:51:47.706Z,2.17
2022-10-23T15:54:17.762Z,2.37
2022-10-23T15:56:45.787Z,2.10
2022-10-23T15:59:12.925Z,2.50
2022-10-23T16:01:40.015Z,2.60
2022-10-23T16:04:07.473Z,3.17
2022-10-23T16:06:34.392Z,2.60
2022-10-23T16:09:01.582Z,2.33
2022-10-23T16:11:30.533Z,2.73
2022-10-23T16:13:59.334Z,2.80
2022-10-23T16:16:28.272Z,2.80
2022-10-23T16:18:55.954Z,2.90
2022-10-23T16:21:25.123Z,3.00
2022-10-23T16:23:53.682Z,3.00
2022-10-23T16:26:21.749Z,3.20
2022-10-23T16:28:52.703Z,3.40
2022-10-23T16:31:23.940Z,3.57
2022-10-23T16:33:51.926Z,3.33
2022-10-23T16:36:19.258Z,3.13
2022-10-23T16:38:46.658Z,3.93
2022-10-23T16:41:13.540Z,3.47
2022-10-23T16:43:40.674Z,3.30
2022-10-23T16:46:11.813Z,3.43
2022-10-23T16:48:38.685Z,3.60
2022-10-23T16:51:06.482Z,3.10
2022-10-23T16:53:33.392Z,3.33
2022-10-23T16:56:02.478Z,3.43
2022-10-23T16:58:29.205Z,3.70
2022-10-23T17:00:59.763Z,3.23
2022-10-23T17:03:26.881Z,3.60
2022-10-23T17:05:56.431Z,3.80
2022-10-23T17:08:25.097Z,3.70
2022-10-23T17:11:04.517Z,3.83
2022-10-23T17:13:31.443Z,3.70
2022-10-23T17:16:07.857Z,4.10
2022-10-23T17:18:34.874Z,3.93
2022-10-23T17:21:03.083Z,3.70
2022-10-23T17:23:30.410Z,4.90
2022-10-23T17:25:57.335Z,4.00
2022-10-23T17:28:25.149Z,4.10
2022-10-23T17:30:52.310Z,4.67
2022-10-23T17:33:19.418Z,4.00
2022-10-23T17:35:46.620Z,4.27
2022-10-23T17:38:17.259Z,3.87
2022-10-23T17:43:17.162Z,4.00
2022-10-23T17:45:44.703Z,4.43
2022-10-23T17:48:12.104Z,3.77
2022-10-23T17:50:39.284Z,4.17
2022-10-23T17:53:06.153Z,3.87
2022-10-23T17:55:37.842Z,4.17
2022-10-23T17:58:04.738Z,3.57
2022-10-23T18:00:31.633Z,4.10
2022-10-23T18:02:59.972Z,4.00
2022-10-23T18:05:26.884Z,4.20
2022-10-23T18:07:54.544Z,3.73
2022-10-23T18:10:21.726Z,3.37
2022-10-23T18:12:48.627Z,3.97
2022-10-23T18:15:15.607Z,3.90
2022-10-23T18:17:42.817Z,4.27
2022-10-23T18:20:11.380Z,3.47
2022-10-23T18:22:38.339Z,5.03
2022-10-23T18:25:05.790Z,3.60
2022-10-23T18:27:32.749Z,3.77
2022-10-23T18:29:59.750Z,4.07
2022-10-23T18:32:27.595Z,3.73
2022-10-23T18:34:54.585Z,4.10
2022-10-23T18:37:22.265Z,3.60
2022-10-23T18:39:49.098Z,4.53
2022-10-23T18:42:16.411Z,3.93
2022-10-23T18:44:49.236Z,3.90
2022-10-23T18:49:48.454Z,3.80
2022-10-23T18:52:21.293Z,3.80
2022-10-23T18:54:48.480Z,4.10
2022-10-23T18:57:15.489Z,4.40
2022-10-23T18:59:43.084Z,3.97
2022-10-23T19:02:11.911Z,4.00
2022-10-23T19:04:39.120Z,4.20
2022-10-23T19:07:06.012Z,3.63
2022-10-23T19:09:33.544Z,3.90
2022-10-23T19:12:01.653Z,4.00
2022-10-23T19:14:29.209Z,3.90
2022-10-23T19:17:00.790Z,3.97
2022-10-23T19:19:31.333Z,4.27
2022-10-23T19:21:58.835Z,6.10
2022-10-23T19:24:36.209Z,3.77
2022-10-23T19:27:05.824Z,3.87
2022-10-23T19:29:33.059Z,3.57
2022-10-23T19:32:00.135Z,3.87
2022-10-23T19:34:27.819Z,4.30
2022-10-23T19:36:54.820Z,3.70
2022-10-23T19:39:22.501Z,3.50
2022-10-23T19:41:50.901Z,4.10
2022-10-23T19:44:19.848Z,3.83
2022-10-23T19:46:47.152Z,3.50
2022-10-23T19:49:14.616Z,4.20
2022-10-23T19:51:46.990Z,3.93
2022-10-23T19:54:17.653Z,3.87
2022-10-23T19:56:44.337Z,4.03
2022-10-23T19:59:12.733Z,4.53
2022-10-23T20:01:43.787Z,4.03
2022-10-23T20:04:13.423Z,3.93
2022-10-23T20:06:40.275Z,4.20
2022-10-23T20:09:09.286Z,4.03
2022-10-23T20:11:38.526Z,4.27
2022-10-23T20:14:06.230Z,4.30
2022-10-23T20:16:36.557Z,4.07
2022-10-23T20:19:05.857Z,4.20
2022-10-23T20:21:33.066Z,4.00
2022-10-23T20:23:59.990Z,3.87
2022-10-23T20:26:27.639Z,4.40
2022-10-23T20:28:55.694Z,4.70
2022-10-23T20:31:24.442Z,4.67
2022-10-23T20:33:51.717Z,4.30
2022-10-23T20:36:25.299Z,4.60
2022-10-23T20:38:52.469Z,4.47
2022-10-23T20:41:19.423Z,4.90
2022-10-23T20:43:48.844Z,4.73
2022-10-23T20:46:15.853Z,4.47
2022-10-23T20:48:43.729Z,4.93
2022-10-23T20:51:12.221Z,5.27
2022-10-23T20:53:40.288Z,4.70
2022-10-23T20:56:07.610Z,4.70
2022-10-23T20:58:34.514Z,4.70
2022-10-23T21:01:07.416Z,5.03
2022-10-23T21:03:34.428Z,4.57
2022-10-23T21:06:04.409Z,5.20
2022-10-23T21:08:31.355Z,5.13
2022-10-23T21:10:58.624Z,4.87
